sensor_id;sensor_type;location;lat;lon;timestamp;pressure;altitude;pressure_sealevel;temperature;humidity
32033;BME280;31720;52.638;9.216;2023-12-22T00:02:59;99021.59;;;5.07;100.00
32033;BME280;31720;52.638;9.216;2023-12-22T00:06:00;99026.81;;;5.22;100.00
32033;BME280;31720;52.638;9.216;2023-12-22T00:09:03;99042.06;;;5.14;100.00
32033;BME280;31720;52.638;9.216;2023-12-22T00:12:04;99053.75;;;5.06;100.00
32033;BME280;31720;52.638;9.216;2023-12-22T00:15:06;99041.44;;;4.94;100.00
32033;BME280;31720;52.638;9.216;2023-12-22T00:18:08;99048.06;;;4.70;100.00
32033;BME280;31720;52.638;9.216;2023-12-22T00:21:09;99037.25;;;4.62;100.00
32033;BME280;31720;52.638;9.216;2023-12-22T00:24:12;99054.34;;;4.66;100.00
32033;BME280;31720;52.638;9.216;2023-12-22T00:27:13;99030.47;;;4.59;100.00
32033;BME280;31720;52.638;9.216;2023-12-22T00:30:14;99050.34;;;4.60;100.00
32033;BME280;31720;52.638;9.216;2023-12-22T00:33:16;99061.91;;;4.70;100.00
32033;BME280;31720;52.638;9.216;2023-12-22T00:36:17;99069.13;;;4.65;100.00
32033;BME280;31720;52.638;9.216;2023-12-22T00:39:24;99042.84;;;4.54;100.00
32033;BME280;31720;52.638;9.216;2023-12-22T00:42:25;99076.03;;;4.35;100.00
32033;BME280;31720;52.638;9.216;2023-12-22T00:45:27;99071.41;;;4.40;100.00
32033;BME280;31720;52.638;9.216;2023-12-22T00:48:28;99072.44;;;4.37;100.00
32033;BME280;31720;52.638;9.216;2023-12-22T00:51:29;99074.19;;;4.37;100.00
32033;BME280;31720;52.638;9.216;2023-12-22T00:54:32;99083.31;;;4.28;100.00
32033;BME280;31720;52.638;9.216;2023-12-22T00:57:33;99061.50;;;4.15;100.00
32033;BME280;31720;52.638;9.216;2023-12-22T01:00:35;99104.88;;;4.14;100.00
32033;BME280;31720;52.638;9.216;2023-12-22T01:03:36;99120.16;;;3.87;100.00
32033;BME280;31720;52.638;9.216;2023-12-22T01:06:37;99111.69;;;3.84;100.00
32033;BME280;31720;52.638;9.216;2023-12-22T01:09:42;99098.25;;;3.58;100.00
32033;BME280;31720;52.638;9.216;2023-12-22T01:12:43;99104.47;;;3.55;100.00
32033;BME280;31720;52.638;9.216;2023-12-22T01:15:45;99113.84;;;3.58;100.00
32033;BME280;31720;52.638;9.216;2023-12-22T01:18:46;99118.38;;;3.54;100.00
32033;BME280;31720;52.638;9.216;2023-12-22T01:21:47;99107.53;;;3.46;100.00
32033;BME280;31720;52.638;9.216;2023-12-22T01:24:51;99093.31;;;3.53;100.00
32033;BME280;31720;52.638;9.216;2023-12-22T01:27:52;99099.88;;;3.61;100.00
32033;BME280;31720;52.638;9.216;2023-12-22T01:30:53;99109.88;;;3.68;100.00
32033;BME280;31720;52.638;9.216;2023-12-22T01:33:55;99093.91;;;3.59;100.00
32033;BME280;31720;52.638;9.216;2023-12-22T01:36:56;99095.38;;;3.64;100.00
32033;BME280;31720;52.638;9.216;2023-12-22T01:39:59;99125.31;;;3.54;100.00
32033;BME280;31720;52.638;9.216;2023-12-22T01:43:01;99097.78;;;3.67;100.00
32033;BME280;31720;52.638;9.216;2023-12-22T01:46:03;99109.88;;;3.68;100.00
32033;BME280;31720;52.638;9.216;2023-12-22T01:49:05;99096.94;;;3.67;100.00
32033;BME280;31720;52.638;9.216;2023-12-22T01:52:08;99104.00;;;3.65;100.00
32033;BME280;31720;52.638;9.216;2023-12-22T01:55:13;99121.84;;;3.71;100.00
32033;BME280;31720;52.638;9.216;2023-12-22T01:58:14;99107.19;;;3.70;100.00
32033;BME280;31720;52.638;9.216;2023-12-22T02:01:16;99126.66;;;3.78;100.00
32033;BME280;31720;52.638;9.216;2023-12-22T02:04:17;99135.38;;;3.77;100.00
32033;BME280;31720;52.638;9.216;2023-12-22T02:07:19;99129.63;;;3.88;100.00
32033;BME280;31720;52.638;9.216;2023-12-22T02:10:22;99126.03;;;3.91;100.00
32033;BME280;31720;52.638;9.216;2023-12-22T02:13:23;99142.47;;;3.91;100.00
32033;BME280;31720;52.638;9.216;2023-12-22T02:16:31;99125.88;;;3.94;100.00
32033;BME280;31720;52.638;9.216;2023-12-22T02:19:40;99132.63;;;3.63;100.00
32033;BME280;31720;52.638;9.216;2023-12-22T02:22:44;99159.75;;;3.58;100.00
32033;BME280;31720;52.638;9.216;2023-12-22T02:25:45;99139.44;;;3.48;100.00
32033;BME280;31720;52.638;9.216;2023-12-22T02:28:47;99144.50;;;3.51;100.00
32033;BME280;31720;52.638;9.216;2023-12-22T02:31:51;99141.06;;;3.51;100.00
32033;BME280;31720;52.638;9.216;2023-12-22T02:34:56;99150.53;;;3.52;100.00
32033;BME280;31720;52.638;9.216;2023-12-22T02:38:00;99137.22;;;3.58;100.00
32033;BME280;31720;52.638;9.216;2023-12-22T02:41:03;99131.28;;;3.56;100.00
32033;BME280;31720;52.638;9.216;2023-12-22T02:44:06;99128.00;;;3.52;100.00
32033;BME280;31720;52.638;9.216;2023-12-22T02:47:07;99131.28;;;3.56;100.00
32033;BME280;31720;52.638;9.216;2023-12-22T02:50:09;99129.28;;;3.61;100.00
32033;BME280;31720;52.638;9.216;2023-12-22T02:53:12;99124.47;;;3.53;100.00
32033;BME280;31720;52.638;9.216;2023-12-22T02:56:13;99127.53;;;3.62;100.00
32033;BME280;31720;52.638;9.216;2023-12-22T02:59:15;99130.22;;;3.60;100.00
32033;BME280;31720;52.638;9.216;2023-12-22T03:02:16;99125.06;;;3.59;100.00
32033;BME280;31720;52.638;9.216;2023-12-22T03:05:17;99122.31;;;3.62;100.00
32033;BME280;31720;52.638;9.216;2023-12-22T03:08:20;99113.34;;;3.51;100.00
32033;BME280;31720;52.638;9.216;2023-12-22T03:11:21;99129.66;;;3.53;100.00
32033;BME280;31720;52.638;9.216;2023-12-22T03:14:23;99122.72;;;3.54;100.00
32033;BME280;31720;52.638;9.216;2023-12-22T03:17:24;99145.00;;;3.58;100.00
32033;BME280;31720;52.638;9.216;2023-12-22T03:20:25;99143.25;;;3.59;100.00
32033;BME280;31720;52.638;9.216;2023-12-22T03:23:28;99138.47;;;3.68;100.00
32033;BME280;31720;52.638;9.216;2023-12-22T03:26:29;99118.44;;;3.70;100.00
32033;BME280;31720;52.638;9.216;2023-12-22T03:29:30;99119.63;;;3.63;100.00
32033;BME280;31720;52.638;9.216;2023-12-22T03:32:32;99133.31;;;3.67;100.00
32033;BME280;31720;52.638;9.216;2023-12-22T03:35:33;99111.56;;;3.69;100.00
32033;BME280;31720;52.638;9.216;2023-12-22T03:38:36;99097.50;;;3.73;100.00
32033;BME280;31720;52.638;9.216;2023-12-22T03:41:37;99100.00;;;3.75;100.00
32033;BME280;31720;52.638;9.216;2023-12-22T03:44:38;99114.91;;;3.71;100.00
32033;BME280;31720;52.638;9.216;2023-12-22T03:47:40;99130.66;;;3.68;100.00
32033;BME280;31720;52.638;9.216;2023-12-22T03:50:41;99106.66;;;3.63;100.00
32033;BME280;31720;52.638;9.216;2023-12-22T03:53:44;99111.56;;;3.52;100.00
32033;BME280;31720;52.638;9.216;2023-12-22T03:56:45;99106.06;;;3.58;100.00
32033;BME280;31720;52.638;9.216;2023-12-22T03:59:46;99109.34;;;3.62;100.00
32033;BME280;31720;52.638;9.216;2023-12-22T04:02:48;99114.44;;;3.63;100.00
32033;BME280;31720;52.638;9.216;2023-12-22T04:05:49;99114.69;;;3.59;100.00
32033;BME280;31720;52.638;9.216;2023-12-22T04:08:52;99113.41;;;3.50;100.00
32033;BME280;31720;52.638;9.216;2023-12-22T04:11:53;99134.56;;;3.42;100.00
32033;BME280;31720;52.638;9.216;2023-12-22T04:14:54;99131.88;;;3.44;100.00
32033;BME280;31720;52.638;9.216;2023-12-22T04:17:56;99137.53;;;3.17;100.00
32033;BME280;31720;52.638;9.216;2023-12-22T04:20:57;99142.25;;;3.26;100.00
32033;BME280;31720;52.638;9.216;2023-12-22T04:24:00;99157.44;;;3.17;100.00
32033;BME280;31720;52.638;9.216;2023-12-22T04:27:01;99147.47;;;3.26;100.00
32033;BME280;31720;52.638;9.216;2023-12-22T04:30:03;99141.28;;;3.29;100.00
32033;BME280;31720;52.638;9.216;2023-12-22T04:33:04;99123.56;;;3.37;100.00
32033;BME280;31720;52.638;9.216;2023-12-22T04:36:06;99108.00;;;3.37;100.00
32033;BME280;31720;52.638;9.216;2023-12-22T04:39:09;99114.25;;;3.33;100.00
32033;BME280;31720;52.638;9.216;2023-12-22T04:42:10;99103.94;;;3.31;100.00
32033;BME280;31720;52.638;9.216;2023-12-22T04:45:11;99105.03;;;3.27;100.00
32033;BME280;31720;52.638;9.216;2023-12-22T04:48:13;99110.66;;;3.36;100.00
32033;BME280;31720;52.638;9.216;2023-12-22T04:51:14;99128.44;;;3.43;100.00
32033;BME280;31720;52.638;9.216;2023-12-22T04:54:17;99131.88;;;3.44;100.00
32033;BME280;31720;52.638;9.216;2023-12-22T04:57:18;99127.75;;;3.40;100.00
32033;BME280;31720;52.638;9.216;2023-12-22T05:00:20;99121.69;;;3.41;100.00
32033;BME280;31720;52.638;9.216;2023-12-22T05:03:21;99112.63;;;3.48;100.00
32033;BME280;31720;52.638;9.216;2023-12-22T05:06:22;99117.97;;;3.62;100.00
32033;BME280;31720;52.638;9.216;2023-12-22T05:09:25;99126.81;;;3.75;100.00
32033;BME280;31720;52.638;9.216;2023-12-22T05:12:27;99110.25;;;3.78;100.00
32033;BME280;31720;52.638;9.216;2023-12-22T05:15:28;99147.97;;;3.85;100.00
32033;BME280;31720;52.638;9.216;2023-12-22T05:18:30;99110.44;;;3.91;100.00
32033;BME280;31720;52.638;9.216;2023-12-22T05:21:31;99117.81;;;3.83;100.00
32033;BME280;31720;52.638;9.216;2023-12-22T05:24:34;99124.13;;;3.77;100.00
32033;BME280;31720;52.638;9.216;2023-12-22T05:27:35;99113.06;;;3.91;100.00
32033;BME280;31720;52.638;9.216;2023-12-22T05:30:36;99120.91;;;3.89;100.00
32033;BME280;31720;52.638;9.216;2023-12-22T05:33:38;99135.78;;;4.03;100.00
32033;BME280;31720;52.638;9.216;2023-12-22T05:36:39;99136.97;;;4.13;100.00
32033;BME280;31720;52.638;9.216;2023-12-22T05:39:42;99139.75;;;4.10;100.00
32033;BME280;31720;52.638;9.216;2023-12-22T05:42:45;99134.69;;;4.07;100.00
32033;BME280;31720;52.638;9.216;2023-12-22T05:45:46;99147.19;;;4.00;100.00
32033;BME280;31720;52.638;9.216;2023-12-22T05:48:48;99155.03;;;3.66;100.00
32033;BME280;31720;52.638;9.216;2023-12-22T05:51:49;99134.84;;;3.53;100.00
32033;BME280;31720;52.638;9.216;2023-12-22T05:54:52;99229.50;;;3.48;100.00
32033;BME280;31720;52.638;9.216;2023-12-22T05:57:54;99178.69;;;3.25;100.00
32033;BME280;31720;52.638;9.216;2023-12-22T06:00:55;99195.53;;;3.16;100.00
32033;BME280;31720;52.638;9.216;2023-12-22T06:03:57;99240.50;;;3.17;100.00
32033;BME280;31720;52.638;9.216;2023-12-22T06:06:59;99160.34;;;3.11;100.00
32033;BME280;31720;52.638;9.216;2023-12-22T06:10:01;99183.81;;;2.90;100.00
32033;BME280;31720;52.638;9.216;2023-12-22T06:13:03;99173.41;;;2.90;100.00
32033;BME280;31720;52.638;9.216;2023-12-22T06:16:05;99191.88;;;2.84;100.00
32033;BME280;31720;52.638;9.216;2023-12-22T06:19:07;99189.84;;;2.72;100.00
32033;BME280;31720;52.638;9.216;2023-12-22T06:22:10;99193.44;;;2.69;100.00
32033;BME280;31720;52.638;9.216;2023-12-22T06:25:12;99205.78;;;2.64;100.00
32033;BME280;31720;52.638;9.216;2023-12-22T06:28:14;99206.69;;;2.82;100.00
32033;BME280;31720;52.638;9.216;2023-12-22T06:31:18;99208.22;;;2.86;100.00
32033;BME280;31720;52.638;9.216;2023-12-22T06:34:20;99212.06;;;2.96;100.00
32033;BME280;31720;52.638;9.216;2023-12-22T06:37:21;99201.25;;;3.05;100.00
32033;BME280;31720;52.638;9.216;2023-12-22T06:40:24;99204.47;;;3.11;100.00
32033;BME280;31720;52.638;9.216;2023-12-22T06:43:25;99213.19;;;3.10;100.00
32033;BME280;31720;52.638;9.216;2023-12-22T06:46:27;99206.94;;;3.14;100.00
32033;BME280;31720;52.638;9.216;2023-12-22T06:49:28;99198.22;;;3.15;100.00
32033;BME280;31720;52.638;9.216;2023-12-22T06:52:30;99202.22;;;3.03;100.00
32033;BME280;31720;52.638;9.216;2023-12-22T06:55:33;99217.09;;;2.99;100.00
32033;BME280;31720;52.638;9.216;2023-12-22T06:58:34;99259.09;;;3.08;100.00
32033;BME280;31720;52.638;9.216;2023-12-22T07:01:35;99264.88;;;2.95;100.00
32033;BME280;31720;52.638;9.216;2023-12-22T07:04:37;99243.06;;;2.80;100.00
32033;BME280;31720;52.638;9.216;2023-12-22T07:07:38;99248.31;;;2.79;100.00
32033;BME280;31720;52.638;9.216;2023-12-22T07:10:41;99248.63;;;2.92;100.00
32033;BME280;31720;52.638;9.216;2023-12-22T07:13:42;99243.53;;;3.08;100.00
32033;BME280;31720;52.638;9.216;2023-12-22T07:16:43;99233.78;;;3.13;100.00
32033;BME280;31720;52.638;9.216;2023-12-22T07:19:45;99248.91;;;3.41;100.00
32033;BME280;31720;52.638;9.216;2023-12-22T07:22:46;99257.69;;;3.55;100.00
32033;BME280;31720;52.638;9.216;2023-12-22T07:25:49;99257.16;;;3.66;100.00
32033;BME280;31720;52.638;9.216;2023-12-22T07:28:50;99257.63;;;3.74;100.00
32033;BME280;31720;52.638;9.216;2023-12-22T07:31:51;99262.06;;;3.90;100.00
32033;BME280;31720;52.638;9.216;2023-12-22T07:34:53;99264.16;;;4.00;100.00
32033;BME280;31720;52.638;9.216;2023-12-22T07:37:55;99279.78;;;3.99;100.00
32033;BME280;31720;52.638;9.216;2023-12-22T07:40:57;99277.91;;;4.02;100.00
32033;BME280;31720;52.638;9.216;2023-12-22T07:43:59;99306.34;;;4.05;100.00
32033;BME280;31720;52.638;9.216;2023-12-22T07:47:01;99312.16;;;4.11;100.00
32033;BME280;31720;52.638;9.216;2023-12-22T07:50:03;99316.66;;;4.07;100.00
32033;BME280;31720;52.638;9.216;2023-12-22T07:53:08;99334.63;;;4.12;100.00
32033;BME280;31720;52.638;9.216;2023-12-22T07:56:11;99322.56;;;4.28;100.00
32033;BME280;31720;52.638;9.216;2023-12-22T07:59:13;99320.84;;;4.27;100.00
32033;BME280;31720;52.638;9.216;2023-12-22T08:02:14;99310.16;;;4.33;100.00
32033;BME280;31720;52.638;9.216;2023-12-22T08:05:15;99319.06;;;4.45;100.00
32033;BME280;31720;52.638;9.216;2023-12-22T08:08:17;99310.44;;;4.44;100.00
32033;BME280;31720;52.638;9.216;2023-12-22T08:11:19;99312.88;;;4.47;100.00
32033;BME280;31720;52.638;9.216;2023-12-22T08:14:20;99320.13;;;4.58;100.00
32033;BME280;31720;52.638;9.216;2023-12-22T08:17:22;99318.06;;;4.65;100.00
32033;BME280;31720;52.638;9.216;2023-12-22T08:20:24;99327.53;;;4.66;100.00
32033;BME280;31720;52.638;9.216;2023-12-22T08:23:25;99332.41;;;4.72;100.00
32033;BME280;31720;52.638;9.216;2023-12-22T08:26:28;99332.81;;;4.97;100.00
32033;BME280;31720;52.638;9.216;2023-12-22T08:29:29;99388.34;;;4.98;100.00
32033;BME280;31720;52.638;9.216;2023-12-22T08:32:30;99340.38;;;4.86;100.00
32033;BME280;31720;52.638;9.216;2023-12-22T08:35:32;99369.84;;;4.87;100.00
32033;BME280;31720;52.638;9.216;2023-12-22T08:38:33;99358.34;;;4.91;100.00
32033;BME280;31720;52.638;9.216;2023-12-22T08:41:36;99361.47;;;4.97;100.00
32033;BME280;31720;52.638;9.216;2023-12-22T08:44:37;99365.44;;;5.04;100.00
32033;BME280;31720;52.638;9.216;2023-12-22T08:47:39;99362.25;;;5.15;100.00
32033;BME280;31720;52.638;9.216;2023-12-22T08:50:40;99359.84;;;5.28;100.00
32033;BME280;31720;52.638;9.216;2023-12-22T08:53:41;99375.22;;;5.32;100.00
32033;BME280;31720;52.638;9.216;2023-12-22T08:56:44;99377.72;;;5.34;100.00
32033;BME280;31720;52.638;9.216;2023-12-22T08:59:45;99387.31;;;5.33;100.00
32033;BME280;31720;52.638;9.216;2023-12-22T09:02:47;99372.28;;;5.39;100.00
32033;BME280;31720;52.638;9.216;2023-12-22T09:05:48;99386.81;;;5.43;100.00
32033;BME280;31720;52.638;9.216;2023-12-22T09:08:49;99381.84;;;5.38;100.00
32033;BME280;31720;52.638;9.216;2023-12-22T09:11:52;99385.44;;;5.35;100.00
32033;BME280;31720;52.638;9.216;2023-12-22T09:14:53;99380.19;;;5.37;100.00
32033;BME280;31720;52.638;9.216;2023-12-22T09:17:55;99381.00;;;5.38;100.00
32033;BME280;31720;52.638;9.216;2023-12-22T09:20:56;99375.31;;;5.47;100.00
32033;BME280;31720;52.638;9.216;2023-12-22T09:23:57;99361.34;;;5.48;100.00
32033;BME280;31720;52.638;9.216;2023-12-22T09:27:00;99360.41;;;5.49;100.00
32033;BME280;31720;52.638;9.216;2023-12-22T09:30:03;99369.16;;;5.48;100.00
32033;BME280;31720;52.638;9.216;2023-12-22T09:33:08;99376.56;;;5.40;100.00
32033;BME280;31720;52.638;9.216;2023-12-22T09:36:09;99349.16;;;5.48;100.00
32033;BME280;31720;52.638;9.216;2023-12-22T09:39:12;99377.81;;;5.48;100.00
32033;BME280;31720;52.638;9.216;2023-12-22T09:42:19;99391.94;;;5.44;100.00
32033;BME280;31720;52.638;9.216;2023-12-22T09:45:21;99381.50;;;5.44;100.00
32033;BME280;31720;52.638;9.216;2023-12-22T09:48:22;99391.59;;;5.34;100.00
32033;BME280;31720;52.638;9.216;2023-12-22T09:51:28;99395.63;;;5.24;100.00
32033;BME280;31720;52.638;9.216;2023-12-22T09:54:32;99386.97;;;5.24;100.00
32033;BME280;31720;52.638;9.216;2023-12-22T09:57:35;99387.22;;;5.19;100.00
32033;BME280;31720;52.638;9.216;2023-12-22T10:00:39;99382.94;;;5.34;100.00
32033;BME280;31720;52.638;9.216;2023-12-22T10:03:41;99399.44;;;5.17;100.00
32033;BME280;31720;52.638;9.216;2023-12-22T10:06:43;99375.78;;;5.22;100.00
32033;BME280;31720;52.638;9.216;2023-12-22T10:09:46;99382.25;;;5.15;100.00
32033;BME280;31720;52.638;9.216;2023-12-22T10:12:51;99382.69;;;5.23;100.00
32033;BME280;31720;52.638;9.216;2023-12-22T10:15:54;99402.91;;;5.18;100.00
32033;BME280;31720;52.638;9.216;2023-12-22T10:18:56;99416.47;;;4.91;100.00
32033;BME280;31720;52.638;9.216;2023-12-22T10:21:58;99407.69;;;4.59;100.00
32033;BME280;31720;52.638;9.216;2023-12-22T10:24:59;99403.78;;;4.33;100.00
32033;BME280;31720;52.638;9.216;2023-12-22T10:28:03;99391.00;;;4.28;100.00
32033;BME280;31720;52.638;9.216;2023-12-22T10:31:05;99361.56;;;4.28;100.00
32033;BME280;31720;52.638;9.216;2023-12-22T10:34:07;99356.28;;;4.29;100.00
32033;BME280;31720;52.638;9.216;2023-12-22T10:37:09;99350.22;;;4.29;100.00
32033;BME280;31720;52.638;9.216;2023-12-22T10:40:12;99371.88;;;4.29;100.00
32033;BME280;31720;52.638;9.216;2023-12-22T10:43:15;99376.09;;;4.32;100.00
32033;BME280;31720;52.638;9.216;2023-12-22T10:46:17;99369.59;;;4.41;100.00
32033;BME280;31720;52.638;9.216;2023-12-22T10:49:19;99384.97;;;4.45;100.00
32033;BME280;31720;52.638;9.216;2023-12-22T10:52:20;99360.53;;;4.48;100.00
32033;BME280;31720;52.638;9.216;2023-12-22T10:55:21;99355.41;;;4.64;100.00
32033;BME280;31720;52.638;9.216;2023-12-22T10:58:24;99348.97;;;4.71;100.00
32033;BME280;31720;52.638;9.216;2023-12-22T11:01:28;99353.88;;;4.77;100.00
32033;BME280;31720;52.638;9.216;2023-12-22T11:04:30;99363.09;;;4.82;100.00
32033;BME280;31720;52.638;9.216;2023-12-22T11:07:36;99364.88;;;4.82;100.00
32033;BME280;31720;52.638;9.216;2023-12-22T11:10:41;99359.66;;;4.82;100.00
32033;BME280;31720;52.638;9.216;2023-12-22T11:13:45;99367.91;;;4.90;100.00
32033;BME280;31720;52.638;9.216;2023-12-22T11:16:47;99356.94;;;5.01;100.00
32033;BME280;31720;52.638;9.216;2023-12-22T11:19:49;99354.25;;;5.02;100.00
32033;BME280;31720;52.638;9.216;2023-12-22T11:22:51;99359.97;;;5.09;100.00
32033;BME280;31720;52.638;9.216;2023-12-22T11:25:53;99368.16;;;5.19;100.00
32033;BME280;31720;52.638;9.216;2023-12-22T11:28:56;99363.13;;;5.31;100.00
32033;BME280;31720;52.638;9.216;2023-12-22T11:31:59;99353.34;;;5.35;100.00
32033;BME280;31720;52.638;9.216;2023-12-22T11:35:04;99332.53;;;5.35;100.00
32033;BME280;31720;52.638;9.216;2023-12-22T11:38:08;99332.00;;;5.44;100.00
32033;BME280;31720;52.638;9.216;2023-12-22T11:41:16;99335.81;;;5.54;100.00
32033;BME280;31720;52.638;9.216;2023-12-22T11:44:21;99341.94;;;5.53;100.00
32033;BME280;31720;52.638;9.216;2023-12-22T11:47:23;99339.16;;;5.56;100.00
32033;BME280;31720;52.638;9.216;2023-12-22T11:50:28;99334.69;;;5.58;100.00
32033;BME280;31720;52.638;9.216;2023-12-22T11:53:31;99334.44;;;5.63;100.00
32033;BME280;31720;52.638;9.216;2023-12-22T11:56:34;99320.66;;;5.77;100.00
32033;BME280;31720;52.638;9.216;2023-12-22T11:59:38;99332.91;;;5.75;100.00
32033;BME280;31720;52.638;9.216;2023-12-22T12:02:40;99334.44;;;5.79;100.00
32033;BME280;31720;52.638;9.216;2023-12-22T12:05:42;99333.44;;;5.81;100.00
32033;BME280;31720;52.638;9.216;2023-12-22T12:08:43;99312.66;;;5.80;100.00
32033;BME280;31720;52.638;9.216;2023-12-22T12:12:09;99311.56;;;5.84;100.00
32033;BME280;31720;52.638;9.216;2023-12-22T12:15:17;99310.44;;;5.88;100.00
32033;BME280;31720;52.638;9.216;2023-12-22T12:18:21;99311.63;;;5.98;100.00
32033;BME280;31720;52.638;9.216;2023-12-22T12:21:23;99315.00;;;6.00;100.00
32033;BME280;31720;52.638;9.216;2023-12-22T12:24:25;99326.47;;;6.12;100.00
32033;BME280;31720;52.638;9.216;2023-12-22T12:27:26;99331.97;;;6.07;100.00
32033;BME280;31720;52.638;9.216;2023-12-22T12:30:30;99334.41;;;6.10;100.00
32033;BME280;31720;52.638;9.216;2023-12-22T12:33:32;99327.97;;;6.16;100.00
32033;BME280;31720;52.638;9.216;2023-12-22T12:36:34;99333.47;;;6.12;100.00
32033;BME280;31720;52.638;9.216;2023-12-22T12:39:36;99316.72;;;6.16;100.00
32033;BME280;31720;52.638;9.216;2023-12-22T12:42:40;99322.69;;;6.18;100.00
32033;BME280;31720;52.638;9.216;2023-12-22T12:45:43;99312.44;;;6.15;100.00
32033;BME280;31720;52.638;9.216;2023-12-22T12:48:44;99322.69;;;6.18;100.00
32033;BME280;31720;52.638;9.216;2023-12-22T12:51:47;99313.56;;;6.25;100.00
32033;BME280;31720;52.638;9.216;2023-12-22T12:54:48;99323.69;;;6.15;100.00
32033;BME280;31720;52.638;9.216;2023-12-22T12:57:50;99299.22;;;6.18;100.00
32033;BME280;31720;52.638;9.216;2023-12-22T13:00:54;99313.94;;;6.19;100.00
32033;BME280;31720;52.638;9.216;2023-12-22T13:04:04;99309.47;;;6.21;100.00
32033;BME280;31720;52.638;9.216;2023-12-22T13:07:05;99312.56;;;6.27;100.00
32033;BME280;31720;52.638;9.216;2023-12-22T13:10:19;99321.50;;;6.23;100.00
32033;BME280;31720;52.638;9.216;2023-12-22T13:13:20;99318.94;;;6.22;100.00
32033;BME280;31720;52.638;9.216;2023-12-22T13:16:24;99307.25;;;6.29;100.00
32033;BME280;31720;52.638;9.216;2023-12-22T13:19:28;99323.16;;;6.24;100.00
32033;BME280;31720;52.638;9.216;2023-12-22T13:22:29;99316.44;;;6.20;100.00
32033;BME280;31720;52.638;9.216;2023-12-22T13:25:38;99296.38;;;6.37;100.00
32033;BME280;31720;52.638;9.216;2023-12-22T13:28:39;99291.50;;;6.30;100.00
32033;BME280;31720;52.638;9.216;2023-12-22T13:31:42;99297.28;;;6.35;100.00
32033;BME280;31720;52.638;9.216;2023-12-22T13:34:50;99306.41;;;6.28;100.00
32033;BME280;31720;52.638;9.216;2023-12-22T13:37:51;99296.97;;;6.26;100.00
32033;BME280;31720;52.638;9.216;2023-12-22T13:40:53;99302.28;;;6.24;100.00
32033;BME280;31720;52.638;9.216;2023-12-22T13:43:54;99282.25;;;6.25;100.00
32033;BME280;31720;52.638;9.216;2023-12-22T13:47:03;99270.16;;;6.24;100.00
32033;BME280;31720;52.638;9.216;2023-12-22T13:50:13;99266.25;;;6.31;100.00
32033;BME280;31720;52.638;9.216;2023-12-22T13:53:14;99280.16;;;6.31;100.00
32033;BME280;31720;52.638;9.216;2023-12-22T13:56:16;99267.56;;;6.24;100.00
32033;BME280;31720;52.638;9.216;2023-12-22T13:59:30;99268.75;;;6.18;100.00
32033;BME280;31720;52.638;9.216;2023-12-22T14:02:33;99248.47;;;6.23;100.00
32033;BME280;31720;52.638;9.216;2023-12-22T14:05:34;99265.50;;;6.29;100.00
32033;BME280;31720;52.638;9.216;2023-12-22T14:08:35;99262.22;;;6.25;100.00
32033;BME280;31720;52.638;9.216;2023-12-22T14:11:37;99254.69;;;6.21;100.00
32033;BME280;31720;52.638;9.216;2023-12-22T14:14:38;99247.97;;;6.17;100.00
32033;BME280;31720;52.638;9.216;2023-12-22T14:17:41;99249.38;;;6.22;100.00
32033;BME280;31720;52.638;9.216;2023-12-22T14:20:43;99235.31;;;6.25;100.00
32033;BME280;31720;52.638;9.216;2023-12-22T14:23:46;99236.63;;;6.18;100.00
32033;BME280;31720;52.638;9.216;2023-12-22T14:26:54;99243.41;;;6.20;100.00
32033;BME280;31720;52.638;9.216;2023-12-22T14:29:56;99242.19;;;6.26;100.00
32033;BME280;31720;52.638;9.216;2023-12-22T14:32:58;99253.19;;;6.17;100.00
32033;BME280;31720;52.638;9.216;2023-12-22T14:36:00;99259.34;;;6.16;100.00
32033;BME280;31720;52.638;9.216;2023-12-22T14:39:01;99253.56;;;6.10;100.00
32033;BME280;31720;52.638;9.216;2023-12-22T14:42:02;99271.13;;;6.07;100.00
32033;BME280;31720;52.638;9.216;2023-12-22T14:45:04;99271.78;;;5.96;100.00
32033;BME280;31720;52.638;9.216;2023-12-22T14:48:07;99285.13;;;5.90;100.00
32033;BME280;31720;52.638;9.216;2023-12-22T14:51:09;99298.03;;;5.77;100.00
32033;BME280;31720;52.638;9.216;2023-12-22T14:54:10;99302.66;;;4.77;100.00
32033;BME280;31720;52.638;9.216;2023-12-22T14:57:11;99285.72;;;4.53;100.00
32033;BME280;31720;52.638;9.216;2023-12-22T15:00:15;99291.72;;;4.38;100.00
32033;BME280;31720;52.638;9.216;2023-12-22T15:03:18;99284.00;;;4.36;100.00
32033;BME280;31720;52.638;9.216;2023-12-22T15:06:19;99282.00;;;4.41;100.00
32033;BME280;31720;52.638;9.216;2023-12-22T15:09:21;99281.53;;;4.33;100.00
32033;BME280;31720;52.638;9.216;2023-12-22T15:12:22;99292.47;;;4.40;100.00
32033;BME280;31720;52.638;9.216;2023-12-22T15:15:24;99288.03;;;4.42;100.00
32033;BME280;31720;52.638;9.216;2023-12-22T15:18:26;99302.56;;;4.46;100.00
32033;BME280;31720;52.638;9.216;2023-12-22T15:21:27;99315.50;;;4.47;100.00
32033;BME280;31720;52.638;9.216;2023-12-22T15:24:29;99311.28;;;4.45;100.00
32033;BME280;31720;52.638;9.216;2023-12-22T15:27:30;99307.78;;;4.46;100.00
32033;BME280;31720;52.638;9.216;2023-12-22T15:30:32;99297.38;;;4.46;100.00
32033;BME280;31720;52.638;9.216;2023-12-22T15:33:35;99310.66;;;4.40;100.00
32033;BME280;31720;52.638;9.216;2023-12-22T15:36:36;99307.69;;;4.47;100.00
32033;BME280;31720;52.638;9.216;2023-12-22T15:39:37;99331.47;;;4.40;100.00
32033;BME280;31720;52.638;9.216;2023-12-22T15:42:39;99324.09;;;4.32;100.00
32033;BME280;31720;52.638;9.216;2023-12-22T15:45:41;99341.59;;;4.28;100.00
32033;BME280;31720;52.638;9.216;2023-12-22T15:48:44;99319.47;;;4.37;100.00
32033;BME280;31720;52.638;9.216;2023-12-22T15:51:46;99288.97;;;4.41;100.00
32033;BME280;31720;52.638;9.216;2023-12-22T15:54:47;99269.66;;;4.45;100.00
32033;BME280;31720;52.638;9.216;2023-12-22T15:57:48;99270.34;;;4.48;100.00
32033;BME280;31720;52.638;9.216;2023-12-22T16:00:50;99283.81;;;4.39;100.00
32033;BME280;31720;52.638;9.216;2023-12-22T16:03:52;99291.56;;;4.41;100.00
32033;BME280;31720;52.638;9.216;2023-12-22T16:06:54;99297.66;;;4.40;100.00